createdAt,value
2022-11-21T00:00:11.125Z,58.09
2022-11-21T00:01:11.155Z,60.11
2022-11-21T00:02:11.231Z,57.29
2022-11-21T00:03:11.140Z,53.27
2022-11-21T00:04:11.183Z,53.27
2022-11-21T00:05:11.117Z,57.43
2022-11-21T00:06:11.215Z,57.37
2022-11-21T00:07:11.186Z,55.04
2022-11-21T00:08:11.129Z,57.89
2022-11-21T00:09:11.133Z,58.64
2022-11-21T00:10:11.140Z,56.34
2022-11-21T00:11:11.127Z,56.74
2022-11-21T00:12:11.161Z,55.7
2022-11-21T00:13:11.135Z,54.07
2022-11-21T00:14:11.129Z,53.83
2022-11-21T00:15:11.146Z,54.61
2022-11-21T00:16:11.124Z,57.26
2022-11-21T00:17:11.148Z,57.73
2022-11-21T00:18:11.126Z,56.27
2022-11-21T00:19:11.138Z,54.71
2022-11-21T00:20:11.143Z,55.07
2022-11-21T00:21:11.128Z,47.91
2022-11-21T00:22:11.144Z,55.88
2022-11-21T00:23:11.118Z,56.33
2022-11-21T00:24:11.136Z,56.33
2022-11-21T00:25:11.128Z,55.96
2022-11-21T00:26:11.151Z,55.96
2022-11-21T00:27:11.157Z,56.27
2022-11-21T00:28:11.133Z,57.17
2022-11-21T00:29:11.134Z,57.73
2022-11-21T00:30:11.116Z,54.62
2022-11-21T00:31:11.215Z,55.45
2022-11-21T00:32:11.146Z,55.1
2022-11-21T00:33:11.135Z,55.45
2022-11-21T00:34:11.164Z,55.86
2022-11-21T00:35:11.130Z,55.12
2022-11-21T00:36:11.145Z,56.81
2022-11-21T00:37:11.234Z,55
2022-11-21T00:38:11.141Z,54.76
2022-11-21T00:39:11.137Z,55
2022-11-21T00:40:11.131Z,55.36
2022-11-21T00:41:11.130Z,56.64
2022-11-21T00:42:11.146Z,55.08
2022-11-21T00:43:11.143Z,53.66
2022-11-21T00:44:11.137Z,55.54
2022-11-21T00:45:11.163Z,54.75
2022-11-21T00:46:11.131Z,55.54
2022-11-21T00:47:11.158Z,56.5
2022-11-21T00:48:11.132Z,54.32
2022-11-21T00:49:11.135Z,54.09
2022-11-21T00:50:11.160Z,50.18
2022-11-21T00:51:11.132Z,49.41
2022-11-21T00:52:11.309Z,50.41
2022-11-21T00:53:11.130Z,49.77
2022-11-21T00:54:11.140Z,49.77
2022-11-21T00:55:11.135Z,50.22
2022-11-21T00:56:11.130Z,48.95
2022-11-21T00:57:11.147Z,48.24
2022-11-21T00:58:11.129Z,49.39
2022-11-21T00:59:11.131Z,50.67
2022-11-21T01:00:11.133Z,50.67
2022-11-21T01:01:11.250Z,50.48
2022-11-21T01:02:11.151Z,51.61
2022-11-21T01:03:11.132Z,50.94
2022-11-21T01:04:11.136Z,50.54
2022-11-21T01:05:11.145Z,51.24
2022-11-21T01:06:11.140Z,51.43
2022-11-21T01:07:11.185Z,51.07
2022-11-21T01:08:11.181Z,51.76
2022-11-21T01:09:11.135Z,49.75
2022-11-21T01:10:11.148Z,51.52
2022-11-21T01:11:11.122Z,51.52
2022-11-21T01:12:11.145Z,52.36
2022-11-21T01:13:11.125Z,52.25
2022-11-21T01:14:11.122Z,53.6
2022-11-21T01:15:11.139Z,50.08
2022-11-21T01:16:11.133Z,52.9
2022-11-21T01:17:11.141Z,53.24
2022-11-21T01:18:11.119Z,53.5
2022-11-21T01:19:11.149Z,55.75
2022-11-21T01:20:11.141Z,54.93
2022-11-21T01:21:11.134Z,53.76
2022-11-21T01:22:11.144Z,54.69
2022-11-21T01:23:11.134Z,55.09
2022-11-21T01:24:11.126Z,54.66
2022-11-21T01:25:11.118Z,54.99
2022-11-21T01:26:11.128Z,52.09
2022-11-21T01:27:11.150Z,54.73
2022-11-21T01:28:11.125Z,54.4
2022-11-21T01:29:11.141Z,53.97
2022-11-21T01:30:11.121Z,52.25
2022-11-21T01:31:11.147Z,53.06
2022-11-21T01:32:11.141Z,55.21
2022-11-21T01:33:11.131Z,54.52
2022-11-21T01:34:11.134Z,53.21
2022-11-21T01:35:11.140Z,54.17
2022-11-21T01:36:11.142Z,51.35
2022-11-21T01:37:11.148Z,52.61
2022-11-21T01:38:11.135Z,52.71
2022-11-21T01:39:11.141Z,54.15
2022-11-21T01:40:11.138Z,53.43
2022-11-21T01:41:11.169Z,54.03
2022-11-21T01:42:11.147Z,53.3
2022-11-21T01:43:11.142Z,53.33
2022-11-21T01:44:11.134Z,51.66
2022-11-21T01:45:11.149Z,51.49
2022-11-21T01:46:11.134Z,52.2
2022-11-21T01:47:11.147Z,48.71
2022-11-21T01:48:11.125Z,48.64
2022-11-21T01:49:11.130Z,49.49
2022-11-21T01:50:13.121Z,48.75
2022-11-21T01:51:11.163Z,52.78
2022-11-21T01:52:11.148Z,51.2
2022-11-21T01:53:11.132Z,51.2
2022-11-21T01:54:11.138Z,52.7
2022-11-21T01:55:11.137Z,51.23
2022-11-21T01:56:11.133Z,52.38
2022-11-21T01:57:11.137Z,51.03
2022-11-21T01:58:11.143Z,50.11
2022-11-21T01:59:11.138Z,52.28
2022-11-21T02:00:11.123Z,50.92
2022-11-21T02:01:11.193Z,50.86
2022-11-21T02:02:11.153Z,49.71
2022-11-21T02:03:11.129Z,48.88
2022-11-21T02:04:11.145Z,49.14
2022-11-21T02:05:11.135Z,47.9
2022-11-21T02:06:11.145Z,48.04
2022-11-21T02:07:11.215Z,46.72
2022-11-21T02:08:11.133Z,46.2
2022-11-21T02:09:11.133Z,46.2
2022-11-21T02:10:11.147Z,46.2
2022-11-21T02:11:11.138Z,46.2
2022-11-21T02:12:11.149Z,47.48
2022-11-21T02:13:11.142Z,49.26
2022-11-21T02:14:11.141Z,47.42
2022-11-21T02:15:11.135Z,48.06
2022-11-21T02:16:11.143Z,48.06
2022-11-21T02:17:11.164Z,48.06
2022-11-21T02:18:11.134Z,48.06
2022-11-21T02:19:11.148Z,48.06
2022-11-21T02:20:11.133Z,48.06
2022-11-21T02:21:11.117Z,48.06
2022-11-21T02:22:11.150Z,48.06
2022-11-21T02:23:11.116Z,48.06
2022-11-21T02:24:11.119Z,48.06
2022-11-21T02:25:11.139Z,48.06
2022-11-21T02:26:11.139Z,48.06
2022-11-21T02:27:11.142Z,48.06
2022-11-21T02:28:11.140Z,48.06
2022-11-21T02:29:11.127Z,48.06
2022-11-21T02:30:11.118Z,48.06
2022-11-21T02:31:11.139Z,48.06
2022-11-21T02:32:11.146Z,48.06
2022-11-21T02:33:11.130Z,48.06
2022-11-21T02:34:11.114Z,48.06
2022-11-21T02:35:11.129Z,47.49
2022-11-21T02:36:11.121Z,46
2022-11-21T02:37:11.132Z,44.84
2022-11-21T02:38:11.126Z,44.92
2022-11-21T02:39:11.130Z,44.92
2022-11-21T02:40:11.135Z,44.12
2022-11-21T02:41:11.132Z,46.52
2022-11-21T02:42:11.148Z,44.67
2022-11-21T02:43:11.149Z,42.23
2022-11-21T02:44:11.136Z,44.71
2022-11-21T02:45:11.141Z,45.2
2022-11-21T02:46:11.156Z,45.2
2022-11-21T02:47:11.148Z,45.82
2022-11-21T02:48:11.123Z,46.98
2022-11-21T02:49:11.145Z,49.41
2022-11-21T02:50:11.126Z,46.44
2022-11-21T02:51:11.130Z,46.44
2022-11-21T02:52:11.154Z,44.95
2022-11-21T02:53:11.133Z,44.83
2022-11-21T02:54:11.149Z,45.43
2022-11-21T02:55:11.137Z,45.43
2022-11-21T02:56:11.143Z,45.43
2022-11-21T02:57:11.143Z,45.43
2022-11-21T02:58:11.140Z,45.43
2022-11-21T02:59:11.145Z,45.43
2022-11-21T03:00:11.126Z,45.43
2022-11-21T03:01:11.165Z,45.43
2022-11-21T03:02:11.147Z,45.43
2022-11-21T03:03:11.126Z,45.43
2022-11-21T03:04:11.137Z,45.43
2022-11-21T03:05:11.128Z,45.43
2022-11-21T03:06:11.144Z,45.43
2022-11-21T03:07:11.174Z,45.43
2022-11-21T03:08:11.144Z,45.43
2022-11-21T03:09:11.128Z,45.43
2022-11-21T03:10:11.120Z,45.43
2022-11-21T03:11:11.136Z,45.43
2022-11-21T03:12:11.140Z,45.43
2022-11-21T03:13:11.148Z,45.43
2022-11-21T03:14:11.128Z,45.43
2022-11-21T03:15:11.128Z,45.43
2022-11-21T03:16:11.131Z,45.43
2022-11-21T03:17:11.145Z,45.43
2022-11-21T03:18:11.159Z,45.43
2022-11-21T03:19:11.126Z,45.43
2022-11-21T03:20:11.128Z,45.43
2022-11-21T03:21:11.123Z,45.43
2022-11-21T03:22:11.144Z,45.43
2022-11-21T03:23:11.132Z,45.43
2022-11-21T03:24:11.130Z,45.43
2022-11-21T03:25:11.125Z,45.43
2022-11-21T03:26:11.138Z,45.43
2022-11-21T03:27:11.144Z,45.43
2022-11-21T03:28:11.117Z,45.43
2022-11-21T03:29:11.134Z,45.43
2022-11-21T03:30:11.129Z,45.43
2022-11-21T03:31:11.137Z,45.43
2022-11-21T03:32:11.144Z,45.43
2022-11-21T03:33:11.128Z,45.43
2022-11-21T03:34:11.128Z,45.43
2022-11-21T03:35:11.131Z,45.43
2022-11-21T03:36:11.128Z,45.43
2022-11-21T03:37:11.135Z,45.43
2022-11-21T03:38:11.139Z,45.43
2022-11-21T03:39:11.115Z,45.43
2022-11-21T03:40:11.130Z,45.43
2022-11-21T03:41:11.134Z,45.43
2022-11-21T03:42:11.125Z,45.43
2022-11-21T03:43:11.117Z,45.43
2022-11-21T03:44:11.112Z,45.43
2022-11-21T03:45:11.122Z,45.43
2022-11-21T03:46:11.121Z,45.43
2022-11-21T03:47:11.146Z,45.43
2022-11-21T03:48:11.131Z,45.43
2022-11-21T03:49:11.125Z,45.43
2022-11-21T03:50:11.128Z,45.43
2022-11-21T03:51:11.110Z,45.43
2022-11-21T03:52:11.157Z,45.43
2022-11-21T03:53:11.128Z,45.43
2022-11-21T03:54:11.130Z,45.43
2022-11-21T03:55:11.136Z,45.43
2022-11-21T03:56:11.132Z,45.43
2022-11-21T03:57:11.145Z,45.43
2022-11-21T03:58:11.121Z,45.43
2022-11-21T03:59:11.133Z,45.43
2022-11-21T04:00:11.133Z,45.43
2022-11-21T04:01:11.180Z,45.43
2022-11-21T04:02:11.139Z,45.43
2022-11-21T04:03:11.115Z,45.43
2022-11-21T04:04:11.128Z,45.43
2022-11-21T04:05:11.136Z,45.43
2022-11-21T04:06:11.137Z,45.43
2022-11-21T04:07:11.176Z,45.43
2022-11-21T04:08:11.124Z,45.43
2022-11-21T04:09:11.125Z,45.43
2022-11-21T04:10:11.140Z,45.43
2022-11-21T04:11:11.135Z,45.43
2022-11-21T04:12:11.146Z,45.43
2022-11-21T04:13:11.151Z,45.43
2022-11-21T04:14:11.132Z,45.43
2022-11-21T04:15:13.973Z,45.43
2022-11-21T04:16:11.132Z,45.43
2022-11-21T04:17:11.142Z,45.43
2022-11-21T04:18:11.124Z,45.43
2022-11-21T04:19:11.152Z,45.43
2022-11-21T04:20:11.132Z,45.43
2022-11-21T04:21:11.130Z,45.43
2022-11-21T04:22:11.148Z,45.43
2022-11-21T04:23:11.125Z,45.43
2022-11-21T04:24:11.135Z,45.43
2022-11-21T04:25:11.148Z,45.43
2022-11-21T04:26:11.129Z,45.43
2022-11-21T04:27:11.145Z,45.43
2022-11-21T04:28:11.130Z,45.43
2022-11-21T04:29:11.131Z,45.43
2022-11-21T04:30:11.121Z,45.43
2022-11-21T04:31:11.606Z,45.43
2022-11-21T04:32:11.141Z,45.43
2022-11-21T04:33:11.146Z,45.43
2022-11-21T04:34:11.126Z,45.43
2022-11-21T04:35:11.147Z,45.43
2022-11-21T04:36:11.151Z,45.43
2022-11-21T04:37:11.899Z,45.43
2022-11-21T04:38:11.142Z,45.43
2022-11-21T04:39:11.132Z,45.43
2022-11-21T04:40:11.142Z,45.43
2022-11-21T04:41:11.133Z,45.43
2022-11-21T04:42:11.144Z,45.43
2022-11-21T04:43:11.151Z,45.43
2022-11-21T04:44:11.127Z,45.43
2022-11-21T04:45:11.139Z,45.43
2022-11-21T04:46:11.127Z,45.43
2022-11-21T04:47:11.144Z,45.43
2022-11-21T04:48:11.194Z,45.43
2022-11-21T04:49:11.136Z,45.43
2022-11-21T04:50:11.129Z,45.43
2022-11-21T04:51:11.131Z,45.43
2022-11-21T04:52:11.288Z,45.43
2022-11-21T04:53:11.127Z,45.43
2022-11-21T04:54:11.140Z,45.43
2022-11-21T04:55:11.146Z,45.43
2022-11-21T04:56:11.128Z,45.43
2022-11-21T04:57:11.159Z,45.43
2022-11-21T04:58:11.119Z,45.43
2022-11-21T04:59:11.134Z,45.43
2022-11-21T05:00:11.137Z,45.43
2022-11-21T05:01:11.172Z,45.43
2022-11-21T05:02:11.145Z,45.43
2022-11-21T05:03:11.148Z,45.43
2022-11-21T05:04:11.127Z,45.43
2022-11-21T05:05:11.138Z,45.43
2022-11-21T05:06:11.127Z,45.43
2022-11-21T05:07:11.263Z,45.43
2022-11-21T05:08:11.129Z,45.43
2022-11-21T05:09:11.137Z,45.43
2022-11-21T05:10:11.127Z,45.43
2022-11-21T05:11:11.129Z,45.43
2022-11-21T05:12:11.145Z,45.43
2022-11-21T05:13:11.208Z,45.43
2022-11-21T05:14:11.145Z,45.43
2022-11-21T05:15:11.137Z,45.43
2022-11-21T05:16:11.149Z,45.43
2022-11-21T05:17:11.148Z,45.43
2022-11-21T05:18:11.129Z,45.43
2022-11-21T05:19:11.213Z,45.43
2022-11-21T05:20:11.133Z,45.43
2022-11-21T05:21:11.142Z,45.43
2022-11-21T05:22:11.141Z,45.43
2022-11-21T05:23:11.140Z,45.43
2022-11-21T05:24:11.148Z,45.43
2022-11-21T05:25:11.128Z,40.41
2022-11-21T05:26:11.145Z,43.11
2022-11-21T05:27:11.143Z,43.11
2022-11-21T05:28:11.134Z,43.11
2022-11-21T05:29:11.128Z,43.11
2022-11-21T05:30:11.131Z,41.38
2022-11-21T05:31:11.139Z,41.38
2022-11-21T05:32:11.140Z,41.38
2022-11-21T05:33:11.127Z,41.38
2022-11-21T05:34:11.152Z,41.38
2022-11-21T05:35:11.136Z,41.38
2022-11-21T05:36:11.136Z,41.45
2022-11-21T05:37:11.149Z,42.54
2022-11-21T05:38:11.166Z,41.99
2022-11-21T05:39:11.134Z,41.99
2022-11-21T05:40:11.123Z,41.99
2022-11-21T05:41:11.135Z,41.99
2022-11-21T05:42:11.146Z,41.99
2022-11-21T05:43:11.171Z,41.99
2022-11-21T05:44:11.121Z,41.99
2022-11-21T05:45:11.144Z,41.67
2022-11-21T05:46:11.133Z,41.02
2022-11-21T05:47:11.152Z,41.59
2022-11-21T05:48:11.135Z,41.1
2022-11-21T05:49:11.148Z,40.89
2022-11-21T05:50:11.230Z,40.89
2022-11-21T05:51:11.138Z,40.18
2022-11-21T05:52:11.149Z,40.91
2022-11-21T05:53:11.147Z,40.91
2022-11-21T05:54:11.146Z,42.4
2022-11-21T05:55:11.146Z,41.77
2022-11-21T05:56:11.119Z,41.35
2022-11-21T05:57:11.150Z,41.35
2022-11-21T05:58:11.128Z,41.18
2022-11-21T05:59:11.125Z,41.12
2022-11-21T06:00:11.117Z,39.72
2022-11-21T06:01:11.138Z,40.66
2022-11-21T06:02:11.144Z,41.86
2022-11-21T06:03:11.204Z,40.63
2022-11-21T06:04:11.144Z,39.94
2022-11-21T06:05:11.124Z,40.56
2022-11-21T06:06:11.125Z,40.56
2022-11-21T06:07:11.244Z,40.88
2022-11-21T06:08:11.132Z,40.13
2022-11-21T06:09:11.141Z,39.8
2022-11-21T06:10:11.122Z,38.78
2022-11-21T06:11:11.115Z,38.1
2022-11-21T06:12:11.147Z,39.84
2022-11-21T06:13:11.141Z,38.94
2022-11-21T06:14:11.127Z,38.27
2022-11-21T06:15:11.152Z,39.2
2022-11-21T06:16:11.129Z,40.09
2022-11-21T06:17:11.160Z,42.19
2022-11-21T06:18:11.133Z,42.55
2022-11-21T06:19:11.160Z,42.09
2022-11-21T06:20:11.124Z,39.65
2022-11-21T06:21:11.126Z,39.89
2022-11-21T06:22:11.147Z,40.28
2022-11-21T06:23:11.127Z,39.82
2022-11-21T06:24:11.133Z,39.37
2022-11-21T06:25:11.145Z,39.37
2022-11-21T06:26:11.126Z,39.37
2022-11-21T06:27:11.153Z,39.34
2022-11-21T06:28:11.142Z,38.18
2022-11-21T06:29:11.139Z,39.12
2022-11-21T06:30:11.113Z,38.31
2022-11-21T06:31:11.130Z,37.19
2022-11-21T06:32:11.149Z,39.98
2022-11-21T06:33:11.125Z,39.94
2022-11-21T06:34:11.142Z,41.26
2022-11-21T06:35:11.133Z,38.63
2022-11-21T06:36:11.143Z,38.69
2022-11-21T06:37:11.149Z,39.65
2022-11-21T06:38:11.136Z,39.77
2022-11-21T06:39:11.132Z,38.85
2022-11-21T06:40:11.115Z,38.63
2022-11-21T06:41:11.127Z,37.29
2022-11-21T06:42:11.149Z,38.87
2022-11-21T06:43:11.147Z,38.36
2022-11-21T06:44:11.128Z,39.74
2022-11-21T06:45:11.132Z,39.41
2022-11-21T06:46:11.142Z,39.87
2022-11-21T06:47:11.147Z,40.43
2022-11-21T06:48:11.144Z,39.93
2022-11-21T06:49:11.136Z,41.94
2022-11-21T06:50:11.125Z,41.94
2022-11-21T06:51:11.139Z,40.35
2022-11-21T06:52:11.148Z,40.02
2022-11-21T06:53:11.125Z,39.56
2022-11-21T06:54:16.343Z,39.83
2022-11-21T06:55:11.125Z,39.83
2022-11-21T06:56:11.140Z,40.47
2022-11-21T06:57:11.159Z,39.08
2022-11-21T06:58:11.145Z,39.08
2022-11-21T06:59:11.134Z,40.48
2022-11-21T07:00:11.135Z,41.76
2022-11-21T07:01:11.203Z,39.99
2022-11-21T07:02:11.148Z,40.06
2022-11-21T07:03:11.114Z,41.16
2022-11-21T07:04:11.138Z,40.31
2022-11-21T07:05:11.121Z,38.09
2022-11-21T07:06:11.121Z,39.68
2022-11-21T07:07:11.169Z,39.36
2022-11-21T07:08:13.462Z,39.36
2022-11-21T07:09:32.335Z,41.03
2022-11-21T07:10:11.122Z,39.72
2022-11-21T07:11:24.716Z,39.72
2022-11-21T07:12:11.142Z,39.72
2022-11-21T07:13:11.133Z,38.66
2022-11-21T07:14:11.129Z,37.43
2022-11-21T07:15:11.114Z,37.43
2022-11-21T07:16:11.132Z,36.65
2022-11-21T07:17:11.147Z,36.61
2022-11-21T07:18:11.121Z,37.15
2022-11-21T07:19:11.148Z,37.32
2022-11-21T07:20:11.115Z,38.85
2022-11-21T07:21:11.128Z,38.85
2022-11-21T07:22:11.158Z,39.62
2022-11-21T07:23:11.141Z,38.37
2022-11-21T07:24:11.131Z,37.01
2022-11-21T07:25:11.139Z,38.63
2022-11-21T07:26:11.130Z,38.88
2022-11-21T07:27:11.148Z,38.6
2022-11-21T07:28:11.127Z,38.77
2022-11-21T07:29:11.158Z,38.65
2022-11-21T07:30:11.125Z,37.85
2022-11-21T07:31:13.878Z,38.65
2022-11-21T07:32:11.149Z,37.36
2022-11-21T07:33:11.140Z,37.2
2022-11-21T07:34:11.136Z,36.58
2022-11-21T07:35:11.138Z,38.51
2022-11-21T07:36:11.145Z,39.36
2022-11-21T07:37:11.143Z,39.57
2022-11-21T07:38:11.147Z,38.64
2022-11-21T07:39:11.151Z,37.09
2022-11-21T07:40:11.115Z,37.61
2022-11-21T07:41:11.143Z,37.64
2022-11-21T07:42:11.146Z,37.13
2022-11-21T07:43:11.255Z,37.92
2022-11-21T07:44:11.131Z,37.92
2022-11-21T07:45:11.139Z,38.36
2022-11-21T07:46:11.140Z,37.01
2022-11-21T07:47:11.144Z,36.98
2022-11-21T07:48:11.130Z,36.63
2022-11-21T07:49:11.128Z,38.16
2022-11-21T07:50:11.123Z,38.24
2022-11-21T07:51:11.149Z,37.89
2022-11-21T07:52:11.150Z,39.35
2022-11-21T07:53:11.132Z,38.74
2022-11-21T07:54:11.145Z,38.91
2022-11-21T07:55:11.137Z,37.92
2022-11-21T07:56:11.150Z,40.03
2022-11-21T07:57:11.149Z,41.07
2022-11-21T07:58:11.134Z,40.91
2022-11-21T07:59:11.135Z,40.53
2022-11-21T08:00:11.123Z,40.53
2022-11-21T08:01:11.187Z,39.02
2022-11-21T08:02:11.196Z,38.17
2022-11-21T08:03:11.132Z,38.01
2022-11-21T08:04:11.136Z,38.14
2022-11-21T08:05:11.136Z,37.9
2022-11-21T08:06:11.142Z,37.71
2022-11-21T08:07:11.189Z,38.15
2022-11-21T08:08:11.131Z,38.41
2022-11-21T08:09:11.128Z,38.41
2022-11-21T08:10:11.121Z,39
2022-11-21T08:11:11.132Z,39.33
2022-11-21T08:12:11.144Z,40.59
2022-11-21T08:13:11.123Z,41.16
2022-11-21T08:14:11.121Z,41.08
2022-11-21T08:15:11.131Z,41.08
2022-11-21T08:16:11.121Z,40.78
2022-11-21T08:17:11.155Z,40.3
2022-11-21T08:18:11.116Z,40.65
2022-11-21T08:19:11.188Z,40.05
2022-11-21T08:20:11.132Z,40.98
2022-11-21T08:21:14.548Z,41.51
2022-11-21T08:22:11.138Z,42.25
2022-11-21T08:23:11.134Z,40.21
2022-11-21T08:24:11.135Z,39.82
2022-11-21T08:25:11.131Z,39.65
2022-11-21T08:26:11.162Z,40.05
2022-11-21T08:27:11.205Z,40.01
2022-11-21T08:28:11.123Z,41.31
2022-11-21T08:29:11.144Z,41.54
2022-11-21T08:30:11.122Z,41.46
2022-11-21T08:31:11.134Z,41.43
2022-11-21T08:32:11.149Z,42.26
2022-11-21T08:33:11.137Z,40.97
2022-11-21T08:34:14.470Z,41.03
2022-11-21T08:35:11.143Z,41.39
2022-11-21T08:36:11.143Z,42.16
2022-11-21T08:37:11.149Z,42.58
2022-11-21T08:38:11.131Z,41.59
2022-11-21T08:39:11.139Z,41.37
2022-11-21T08:40:11.123Z,41.11
2022-11-21T08:41:16.087Z,40.85
2022-11-21T08:42:11.159Z,41.25
2022-11-21T08:43:11.133Z,40.96
2022-11-21T08:44:13.820Z,40.96
2022-11-21T08:45:11.151Z,42.32
2022-11-21T08:46:11.135Z,43.29
2022-11-21T08:47:11.154Z,42.16
2022-11-21T08:48:11.137Z,42.16
2022-11-21T08:49:11.132Z,42.79
2022-11-21T08:50:11.120Z,43.27
2022-11-21T08:51:11.132Z,42.94
2022-11-21T08:52:11.154Z,43.02
2022-11-21T08:53:11.134Z,42.96
2022-11-21T08:54:11.147Z,43.48
2022-11-21T08:55:11.143Z,42.61
2022-11-21T08:56:11.140Z,42.43
2022-11-21T08:57:11.151Z,42.27
2022-11-21T08:58:11.126Z,43.15
2022-11-21T08:59:11.148Z,43.07
2022-11-21T09:00:11.140Z,42.67
2022-11-21T09:01:11.133Z,42.42
2022-11-21T09:02:11.191Z,42.7
2022-11-21T09:03:11.156Z,43.97
2022-11-21T09:04:11.128Z,43.24
2022-11-21T09:05:11.131Z,43.93
2022-11-21T09:06:11.147Z,43.82
2022-11-21T09:07:11.244Z,43.7
2022-11-21T09:08:11.146Z,43.77
2022-11-21T09:09:11.136Z,43.34
2022-11-21T09:10:11.120Z,43.34
2022-11-21T09:11:11.131Z,43.72
2022-11-21T09:12:11.150Z,43.55
2022-11-21T09:13:11.132Z,43.44
2022-11-21T09:14:11.129Z,43.7
2022-11-21T09:15:11.131Z,43.15
2022-11-21T09:16:11.136Z,42.99
2022-11-21T09:17:11.145Z,43.39
2022-11-21T09:18:11.152Z,44.52
2022-11-21T09:19:11.124Z,44.03
2022-11-21T09:20:11.160Z,44.03
2022-11-21T09:21:11.142Z,44.78
2022-11-21T09:22:11.146Z,45.17
2022-11-21T09:23:11.122Z,44.85
2022-11-21T09:24:11.136Z,44.38
2022-11-21T09:25:11.152Z,44.51
2022-11-21T09:26:11.136Z,44.98
2022-11-21T09:27:11.135Z,44.78
2022-11-21T09:28:11.122Z,44.84
2022-11-21T09:29:11.124Z,45.74
2022-11-21T09:30:11.133Z,45.84
2022-11-21T09:31:11.130Z,45.84
2022-11-21T09:32:11.149Z,46.05
2022-11-21T09:33:11.133Z,46.39
2022-11-21T09:34:11.120Z,45.88
2022-11-21T09:35:11.132Z,45.95
2022-11-21T09:36:11.131Z,45.95
2022-11-21T09:37:11.146Z,45.56
2022-11-21T09:38:11.119Z,45.26
2022-11-21T09:39:11.144Z,46.57
2022-11-21T09:40:11.133Z,46.57
2022-11-21T09:41:11.129Z,45.57
2022-11-21T09:42:11.147Z,43.67
2022-11-21T09:43:11.127Z,46.32
2022-11-21T09:44:11.134Z,45.71
2022-11-21T09:45:11.139Z,46.31
2022-11-21T09:46:11.134Z,46.38
2022-11-21T09:47:11.150Z,46.61
2022-11-21T09:48:11.137Z,46.73
2022-11-21T09:49:11.144Z,46.49
2022-11-21T09:50:11.123Z,46.98
2022-11-21T09:51:11.133Z,46.19
2022-11-21T09:52:16.953Z,46.06
2022-11-21T09:53:15.754Z,46.85
2022-11-21T09:54:15.757Z,47.33
2022-11-21T09:55:15.748Z,46.93
2022-11-21T09:56:15.751Z,46.51
2022-11-21T09:57:15.752Z,47
2022-11-21T09:58:15.748Z,47.44
2022-11-21T09:59:15.741Z,46.91
2022-11-21T10:00:15.763Z,47.49
2022-11-21T10:01:15.795Z,47.59
2022-11-21T10:02:15.739Z,46.77
2022-11-21T10:03:20.890Z,47.56
2022-11-21T10:04:15.741Z,47.46
2022-11-21T10:05:15.737Z,47.5
2022-11-21T10:06:15.738Z,46.96
2022-11-21T10:07:15.813Z,47.22
2022-11-21T10:08:15.759Z,47.14
2022-11-21T10:09:15.748Z,47.26
2022-11-21T10:10:15.747Z,46.93
2022-11-21T10:11:19.671Z,46.03
2022-11-21T10:12:15.738Z,46.95
2022-11-21T10:13:15.763Z,46.11
2022-11-21T10:14:15.734Z,47.55
2022-11-21T10:15:15.745Z,48.51
2022-11-21T10:16:15.743Z,48.19
2022-11-21T10:17:15.744Z,47
2022-11-21T10:18:15.764Z,47.86
2022-11-21T10:19:15.748Z,48.31
2022-11-21T10:20:15.739Z,48.31
2022-11-21T10:21:15.737Z,49.31
2022-11-21T10:22:15.758Z,48.45
2022-11-21T10:23:15.749Z,47.88
2022-11-21T10:24:15.739Z,48.91
2022-11-21T10:25:15.748Z,49.31
2022-11-21T10:26:15.735Z,48.82
2022-11-21T10:27:15.728Z,48.44
2022-11-21T10:28:15.749Z,49.47
2022-11-21T10:29:15.725Z,49.49
2022-11-21T10:30:15.731Z,49.49
2022-11-21T10:31:15.745Z,48.56
2022-11-21T10:32:15.736Z,48.56
2022-11-21T10:33:15.741Z,48.56
2022-11-21T10:34:15.723Z,48.56
2022-11-21T10:35:15.722Z,48.56
2022-11-21T10:36:15.728Z,48.56
2022-11-21T10:37:15.730Z,48.56
2022-11-21T10:38:15.733Z,48.56
2022-11-21T10:39:15.716Z,47.23
2022-11-21T10:40:15.766Z,48.93
2022-11-21T10:41:15.731Z,48.39
2022-11-21T10:42:19.118Z,48.39
2022-11-21T10:43:15.755Z,47.94
2022-11-21T10:44:15.723Z,47.94
2022-11-21T10:45:15.721Z,49.08
2022-11-21T10:46:15.738Z,49.08
2022-11-21T10:47:15.746Z,49.05
2022-11-21T10:48:15.739Z,49.77
2022-11-21T10:49:15.721Z,49.87
2022-11-21T10:50:15.726Z,51.5
2022-11-21T10:51:15.721Z,50.97
2022-11-21T10:52:15.720Z,50.96
2022-11-21T10:53:15.731Z,51.19
2022-11-21T10:54:15.731Z,51.15
2022-11-21T10:55:15.716Z,50.07
2022-11-21T10:56:15.724Z,50.96
2022-11-21T10:57:15.731Z,51.16
2022-11-21T10:58:15.747Z,51.74
2022-11-21T10:59:15.737Z,51.98
2022-11-21T11:00:15.722Z,51.44
2022-11-21T11:01:15.783Z,53.47
2022-11-21T11:02:15.731Z,53.14
2022-11-21T11:03:15.746Z,52.94
2022-11-21T11:05:15.738Z,53.59
2022-11-21T11:06:15.753Z,53.1
2022-11-21T11:07:15.780Z,52.23
2022-11-21T11:08:15.749Z,52.83
2022-11-21T11:09:15.737Z,51.56
2022-11-21T11:10:15.731Z,52.06
2022-11-21T11:11:15.741Z,52.62
2022-11-21T11:12:15.748Z,53.64
2022-11-21T11:13:44.532Z,54.18
2022-11-21T11:14:15.728Z,54.04
2022-11-21T11:15:15.756Z,53.66
2022-11-21T11:16:15.736Z,52.43
2022-11-21T11:17:15.737Z,52.65
2022-11-21T11:18:15.832Z,53.37
2022-11-21T11:19:15.739Z,53.47
2022-11-21T11:20:15.785Z,51.95
2022-11-21T11:21:15.734Z,53.28
2022-11-21T11:22:15.734Z,53.38
2022-11-21T11:23:15.748Z,52.44
2022-11-21T11:24:15.827Z,52.09
2022-11-21T11:25:15.736Z,53.29
2022-11-21T11:26:15.729Z,54.33
2022-11-21T11:27:15.733Z,54.23
2022-11-21T11:28:15.746Z,53.49
2022-11-21T11:29:15.729Z,53.02
2022-11-21T11:30:15.859Z,53.02
2022-11-21T11:31:15.736Z,51.96
2022-11-21T11:32:20.877Z,51.65
2022-11-21T11:33:15.740Z,51.93
2022-11-21T11:34:15.752Z,51.92
2022-11-21T11:35:15.733Z,53.8
2022-11-21T11:36:15.737Z,53.55
2022-11-21T11:37:15.734Z,53.63
2022-11-21T11:38:15.744Z,54.11
2022-11-21T11:39:15.740Z,53.88
2022-11-21T11:40:15.743Z,52.5
2022-11-21T11:41:15.740Z,52.54
2022-11-21T11:42:16.934Z,51.82
2022-11-21T11:43:15.724Z,52.25
2022-11-21T11:44:15.712Z,52.08
2022-11-21T11:45:15.714Z,51.5
2022-11-21T11:46:15.711Z,52
2022-11-21T11:47:15.715Z,52.81
2022-11-21T11:48:15.755Z,51.81
2022-11-21T11:49:21.221Z,51.75
2022-11-21T11:50:15.826Z,51.44
2022-11-21T11:51:15.719Z,51.55
2022-11-21T11:52:15.717Z,52
2022-11-21T11:53:15.755Z,52.27
2022-11-21T11:54:15.714Z,52.16
2022-11-21T11:55:15.714Z,53.38
2022-11-21T11:56:15.718Z,54.22
2022-11-21T11:57:15.714Z,54.18
2022-11-21T11:58:15.755Z,55.16
2022-11-21T11:59:15.723Z,54.69
2022-11-21T12:00:15.726Z,54.62
2022-11-21T12:01:15.718Z,54.24
2022-11-21T12:02:15.762Z,55.36
2022-11-21T12:03:15.740Z,55.37
2022-11-21T12:04:15.711Z,54.48
2022-11-21T12:05:15.727Z,53.37
2022-11-21T12:06:15.727Z,53.64
2022-11-21T12:08:19.885Z,54.14
2022-11-21T12:08:42.240Z,53.54
2022-11-21T12:09:15.865Z,53.52
2022-11-21T12:10:15.754Z,53.76
2022-11-21T12:11:15.740Z,52.68
2022-11-21T12:12:15.740Z,52.26
2022-11-21T12:13:15.738Z,52.54
2022-11-21T12:14:15.736Z,52.29
2022-11-21T12:15:15.740Z,51.7
2022-11-21T12:16:15.732Z,51.77
2022-11-21T12:17:15.746Z,52.28
2022-11-21T12:18:15.744Z,52.41
2022-11-21T12:19:15.731Z,52.56
2022-11-21T12:20:15.747Z,52.26
2022-11-21T12:21:15.722Z,51.71
2022-11-21T12:22:15.734Z,52.56
2022-11-21T12:23:15.740Z,52.84
2022-11-21T12:24:15.738Z,53.35
2022-11-21T12:25:15.732Z,54.54
2022-11-21T12:26:15.728Z,54.02
2022-11-21T12:27:15.740Z,53.66
2022-11-21T12:28:15.746Z,54.31
2022-11-21T12:29:15.725Z,53.95
2022-11-21T12:30:15.720Z,53.86
2022-11-21T12:31:15.735Z,53.36
2022-11-21T12:32:15.725Z,52.37
2022-11-21T12:33:15.746Z,52.14
2022-11-21T12:34:15.733Z,52.39
2022-11-21T12:35:15.736Z,53.14
2022-11-21T12:36:18.322Z,52.43
2022-11-21T12:37:15.730Z,52.76
2022-11-21T12:38:15.740Z,53.55
2022-11-21T12:39:15.728Z,53.62
2022-11-21T12:40:15.729Z,53.62
2022-11-21T12:41:15.730Z,53.73
2022-11-21T12:42:15.724Z,53.53
2022-11-21T12:43:15.740Z,53.26
2022-11-21T12:44:15.736Z,52.9
2022-11-21T12:45:15.721Z,52.45
2022-11-21T12:46:15.992Z,52.2
2022-11-21T12:47:15.736Z,52.48
2022-11-21T12:48:15.723Z,52.48
2022-11-21T12:49:15.722Z,52.27
2022-11-21T12:50:15.720Z,52.49
2022-11-21T12:51:15.819Z,53.63
2022-11-21T12:52:15.739Z,52.54
2022-11-21T12:53:15.745Z,50.95
2022-11-21T12:54:15.769Z,50.89
2022-11-21T12:55:15.709Z,51.15